createdAt,value
2023-05-22T00:01:44.545Z,101788.13
2023-05-22T00:04:13.485Z,101789.19
2023-05-22T00:06:43.108Z,101789.41
2023-05-22T00:09:10.034Z,101789.69
2023-05-22T00:11:36.696Z,101778.97
2023-05-22T00:14:03.431Z,101783.81
2023-05-22T00:16:30.249Z,101771.81
2023-05-22T00:18:57.726Z,101777.97
2023-05-22T00:21:27.969Z,101773.72
2023-05-22T00:23:54.583Z,101769.13
2023-05-22T00:26:23.380Z,101752.84
2023-05-22T00:28:50.133Z,101746.47
2023-05-22T00:31:16.704Z,101755.44
2023-05-22T00:33:43.267Z,101756.06
2023-05-22T00:36:09.934Z,101752.38
2023-05-22T00:38:37.950Z,101762.13
2023-05-22T00:41:06.432Z,101760.34
2023-05-22T00:43:34.355Z,101750.00
2023-05-22T00:46:01.438Z,101744.47
2023-05-22T00:48:28.110Z,101747.94
2023-05-22T00:50:57.154Z,101740.47
2023-05-22T00:53:25.053Z,101743.97
2023-05-22T00:55:53.809Z,101746.03
2023-05-22T00:58:21.911Z,101743.06
2023-05-22T01:00:48.650Z,101733.25
2023-05-22T01:03:15.919Z,101725.00
2023-05-22T01:05:43.591Z,101727.16
2023-05-22T01:08:10.360Z,101727.16
2023-05-22T01:10:38.914Z,101728.78
2023-05-22T01:13:10.826Z,101717.53
2023-05-22T01:15:49.893Z,101718.31
2023-05-22T01:18:19.936Z,101726.34
2023-05-22T01:21:16.073Z,101715.91
2023-05-22T01:24:26.236Z,101713.53
2023-05-22T01:27:11.262Z,101710.06
2023-05-22T01:29:52.715Z,101711.16
2023-05-22T01:32:25.286Z,101711.16
2023-05-22T01:34:56.950Z,101703.63
2023-05-22T01:37:24.834Z,101709.00
2023-05-22T01:39:52.489Z,101708.66
2023-05-22T01:42:19.842Z,101703.81
2023-05-22T01:44:48.747Z,101709.69
2023-05-22T01:47:15.401Z,101698.66
2023-05-22T01:49:42.847Z,101702.47
2023-05-22T01:52:15.378Z,101697.09
2023-05-22T01:55:03.816Z,101697.69
2023-05-22T01:57:45.822Z,101690.41
2023-05-22T02:00:15.208Z,101688.56
2023-05-22T02:02:49.824Z,101685.34
2023-05-22T02:05:19.250Z,101689.09
2023-05-22T02:07:47.736Z,101676.22
2023-05-22T02:10:15.801Z,101677.00
2023-05-22T02:12:42.490Z,101673.81
2023-05-22T02:15:09.818Z,101670.63
2023-05-22T02:17:40.637Z,101672.66
2023-05-22T02:20:14.539Z,101669.75
2023-05-22T02:22:43.429Z,101673.84
2023-05-22T02:25:14.377Z,101680.56
2023-05-22T02:27:45.478Z,101675.72
2023-05-22T02:30:13.111Z,101672.53
2023-05-22T02:32:40.651Z,101666.69
2023-05-22T02:35:08.448Z,101665.88
2023-05-22T02:37:35.575Z,101663.50
2023-05-22T02:40:02.424Z,101668.56
2023-05-22T02:42:36.337Z,101669.84
2023-05-22T02:45:03.321Z,101666.69
2023-05-22T02:47:30.064Z,101669.19
2023-05-22T02:49:58.034Z,101664.13
2023-05-22T02:52:25.098Z,101660.66
2023-05-22T02:54:51.643Z,101657.47
2023-05-22T02:57:18.305Z,101663.13
2023-05-22T02:59:45.002Z,101664.22
2023-05-22T03:02:12.342Z,101660.22
2023-05-22T03:04:38.998Z,101654.88
2023-05-22T03:07:07.292Z,101652.19
2023-05-22T03:09:34.007Z,101648.44
2023-05-22T03:12:00.942Z,101654.09
2023-05-22T03:14:29.132Z,101656.78
2023-05-22T03:16:56.245Z,101650.34
2023-05-22T03:19:23.364Z,101655.09
2023-05-22T03:21:50.204Z,101653.00
2023-05-22T03:24:17.073Z,101651.41
2023-05-22T03:26:44.063Z,101654.88
2023-05-22T03:29:10.917Z,101644.78
2023-05-22T03:31:37.637Z,101657.97
2023-05-22T03:34:05.766Z,101657.47
2023-05-22T03:36:35.832Z,101649.72
2023-05-22T03:39:03.816Z,101654.56
2023-05-22T03:41:30.599Z,101655.19
2023-05-22T03:43:58.387Z,101661.34
2023-05-22T03:46:25.670Z,101656.25
2023-05-22T03:48:52.552Z,101666.31
2023-05-22T03:51:20.371Z,101660.13
2023-05-22T03:53:47.168Z,101662.03
2023-05-22T03:56:13.800Z,101657.75
2023-05-22T03:58:40.550Z,101653.78
2023-05-22T04:01:09.994Z,101653.09
2023-05-22T04:03:37.916Z,101652.69
2023-05-22T04:06:05.804Z,101654.06
2023-05-22T04:08:32.730Z,101654.84
2023-05-22T04:10:59.286Z,101655.66
2023-05-22T04:13:27.283Z,101661.31
2023-05-22T04:15:54.078Z,101655.19
2023-05-22T04:18:20.697Z,101653.56
2023-05-22T04:20:47.292Z,101658.63
2023-05-22T04:23:14.140Z,101659.63
2023-05-22T04:25:40.795Z,101657.75
2023-05-22T04:28:09.351Z,101662.31
2023-05-22T04:30:38.837Z,101681.34
2023-05-22T04:33:05.886Z,101694.03
2023-05-22T04:35:32.643Z,101697.09
2023-05-22T04:38:02.593Z,101679.63
2023-05-22T04:40:30.467Z,101693.84
2023-05-22T04:42:59.940Z,101697.59
2023-05-22T04:45:30.564Z,101706.13
2023-05-22T04:47:57.208Z,101703.94
2023-05-22T04:50:24.148Z,101712.78
2023-05-22T04:52:51.012Z,101709.41
2023-05-22T04:55:19.264Z,101719.03
2023-05-22T04:57:47.394Z,101719.31
2023-05-22T05:00:16.796Z,101719.03
2023-05-22T05:02:43.519Z,101718.50
2023-05-22T05:05:10.367Z,101720.91
2023-05-22T05:07:38.521Z,101716.06
2023-05-22T05:10:06.065Z,101719.53
2023-05-22T05:12:32.760Z,101721.91
2023-05-22T05:14:59.315Z,101719.53
2023-05-22T05:17:25.973Z,101717.34
2023-05-22T05:19:52.988Z,101712.50
2023-05-22T05:22:19.583Z,101711.41
2023-05-22T05:24:46.452Z,101708.41
2023-05-22T05:27:13.422Z,101714.78
2023-05-22T05:29:40.094Z,101703.19
2023-05-22T05:32:07.210Z,101708.75
2023-05-22T05:34:34.014Z,101706.78
2023-05-22T05:37:01.570Z,101705.59
2023-05-22T05:39:28.291Z,101706.19
2023-05-22T05:41:54.879Z,101704.91
2023-05-22T05:44:21.974Z,101700.94
2023-05-22T05:46:48.745Z,101697.94
2023-05-22T05:49:15.479Z,101699.03
2023-05-22T05:51:42.182Z,101700.94
2023-05-22T05:54:08.725Z,101696.31
2023-05-22T05:56:35.859Z,101698.44
2023-05-22T05:59:02.657Z,101691.16
2023-05-22T06:01:31.481Z,101691.69
2023-05-22T06:03:59.496Z,101695.09
2023-05-22T06:06:26.839Z,101696.13
2023-05-22T06:08:53.480Z,101697.03
2023-05-22T06:11:20.053Z,101697.25
2023-05-22T06:13:46.718Z,101690.38
2023-05-22T06:16:13.849Z,101690.22
2023-05-22T06:18:40.953Z,101690.59
2023-05-22T06:21:07.841Z,101690.59
2023-05-22T06:23:34.398Z,101692.38
2023-05-22T06:26:01.121Z,101701.25
2023-05-22T06:28:27.769Z,101691.94
2023-05-22T06:30:54.430Z,101699.56
2023-05-22T06:33:21.367Z,101710.47
2023-05-22T06:35:48.250Z,101706.25
2023-05-22T06:38:14.879Z,101703.63
2023-05-22T06:40:41.804Z,101706.59
2023-05-22T06:43:08.600Z,101711.81
2023-05-22T06:45:37.457Z,101716.88
2023-05-22T06:48:04.678Z,101716.22
2023-05-22T06:50:31.375Z,101715.72
2023-05-22T06:52:58.079Z,101713.31
2023-05-22T06:55:24.680Z,101714.84
2023-05-22T06:57:51.263Z,101725.25
2023-05-22T07:00:20.914Z,101719.34
2023-05-22T07:02:48.308Z,101722.16
2023-05-22T07:05:15.202Z,101719.84
2023-05-22T07:07:41.811Z,101727.56
2023-05-22T07:10:09.131Z,101728.56
2023-05-22T07:12:35.883Z,101726.25
2023-05-22T07:15:03.077Z,101735.19
2023-05-22T07:17:29.677Z,101739.56
2023-05-22T07:19:56.258Z,101734.81
2023-05-22T07:22:22.944Z,101729.53
2023-05-22T07:24:49.739Z,101727.06
2023-05-22T07:27:16.456Z,101727.66
2023-05-22T07:29:43.097Z,101725.44
2023-05-22T07:32:10.151Z,101734.00
2023-05-22T07:34:37.340Z,101732.22
2023-05-22T07:37:09.025Z,101736.19
2023-05-22T07:39:35.772Z,101732.56
2023-05-22T07:42:03.223Z,101730.44
2023-05-22T07:44:29.861Z,101733.06
2023-05-22T07:46:56.813Z,101729.34
2023-05-22T07:49:24.306Z,101724.41
2023-05-22T07:51:51.203Z,101729.81
2023-05-22T07:54:18.582Z,101738.31
2023-05-22T07:56:45.907Z,101742.13
2023-05-22T07:59:12.642Z,101742.72
2023-05-22T08:01:41.978Z,101736.88
2023-05-22T08:04:08.965Z,101729.09
2023-05-22T08:06:36.132Z,101741.16
2023-05-22T08:09:04.653Z,101742.41
2023-05-22T08:11:31.374Z,101739.25
2023-05-22T08:13:58.392Z,101747.03
2023-05-22T08:16:25.250Z,101755.25
2023-05-22T08:18:54.304Z,101750.75
2023-05-22T08:21:21.068Z,101747.97
2023-05-22T08:23:47.676Z,101753.50
2023-05-22T08:26:15.132Z,101749.88
2023-05-22T08:28:44.964Z,101744.81
2023-05-22T08:31:12.170Z,101748.28
2023-05-22T08:33:40.041Z,101737.44
2023-05-22T08:36:06.992Z,101737.72
2023-05-22T08:38:34.306Z,101743.44
2023-05-22T08:41:01.401Z,101743.56
2023-05-22T08:43:28.751Z,101740.28
2023-05-22T08:46:04.203Z,101741.28
2023-05-22T08:48:33.538Z,101726.44
2023-05-22T08:51:05.252Z,101733.63
2023-05-22T08:53:37.575Z,101728.91
2023-05-22T08:56:07.363Z,101726.47
2023-05-22T08:58:36.195Z,101737.06
2023-05-22T09:01:09.169Z,101732.06
2023-05-22T09:03:37.366Z,101729.22
2023-05-22T09:06:04.835Z,101730.88
2023-05-22T09:08:31.705Z,101724.59
2023-05-22T09:11:00.902Z,101730.19
2023-05-22T09:13:29.493Z,101726.88
2023-05-22T09:16:00.727Z,101724.06
2023-05-22T09:18:28.882Z,101733.19
2023-05-22T09:20:59.323Z,101728.41
2023-05-22T09:23:28.205Z,101724.91
2023-05-22T09:26:00.259Z,101722.44
2023-05-22T09:28:27.542Z,101715.63
2023-05-22T09:30:55.971Z,101713.78
2023-05-22T09:33:24.157Z,101718.94
2023-05-22T09:35:53.045Z,101717.28
2023-05-22T09:38:21.847Z,101717.09
2023-05-22T09:40:53.364Z,101714.91
2023-05-22T09:43:22.297Z,101700.81
2023-05-22T09:45:48.917Z,101710.88
2023-05-22T09:48:17.542Z,101711.47
2023-05-22T09:53:44.368Z,101709.88
2023-05-22T09:56:19.141Z,101709.69
2023-05-22T09:58:48.539Z,101704.38
2023-05-22T10:01:17.055Z,101705.97
2023-05-22T10:03:45.862Z,101711.00
2023-05-22T10:06:16.731Z,101706.78
2023-05-22T10:08:49.135Z,101712.59
2023-05-22T10:11:17.323Z,101709.16
2023-05-22T10:13:47.546Z,101707.00
2023-05-22T10:16:16.941Z,101711.66
2023-05-22T10:18:46.668Z,101714.88
2023-05-22T10:21:13.723Z,101710.38
2023-05-22T10:23:41.567Z,101713.72
2023-05-22T10:26:10.777Z,101707.25
2023-05-22T10:28:46.295Z,101703.53
2023-05-22T10:31:26.448Z,101705.22
2023-05-22T10:34:00.451Z,101698.59
2023-05-22T10:36:43.686Z,101701.56
2023-05-22T10:39:22.360Z,101699.84
2023-05-22T10:41:49.345Z,101692.97
2023-05-22T10:44:17.500Z,101695.69
2023-05-22T10:46:51.414Z,101691.19
2023-05-22T10:49:23.118Z,101701.50
2023-05-22T10:51:55.807Z,101687.28
2023-05-22T10:54:40.199Z,101689.84
2023-05-22T10:57:14.059Z,101691.53
2023-05-22T10:59:40.765Z,101693.94
2023-05-22T11:02:21.229Z,101691.72
2023-05-22T11:04:49.185Z,101690.31
2023-05-22T11:07:16.691Z,101693.25
2023-05-22T11:09:46.299Z,101697.47
2023-05-22T11:12:14.482Z,101688.22
2023-05-22T11:14:41.168Z,101686.69
2023-05-22T11:17:08.078Z,101686.47
2023-05-22T11:19:35.098Z,101680.41
2023-05-22T11:22:03.622Z,101679.25
2023-05-22T11:24:34.413Z,101678.97
2023-05-22T11:27:08.150Z,101669.63
2023-05-22T11:29:36.007Z,101665.84
2023-05-22T11:32:03.179Z,101675.47
2023-05-22T11:34:32.509Z,101677.13
2023-05-22T11:39:58.544Z,101663.69
2023-05-22T11:42:25.394Z,101663.31
2023-05-22T11:44:52.254Z,101659.13
2023-05-22T11:47:19.039Z,101659.94
2023-05-22T11:49:46.438Z,101663.59
2023-05-22T11:52:13.264Z,101655.31
2023-05-22T11:54:39.852Z,101648.75
2023-05-22T11:57:07.918Z,101649.16
2023-05-22T11:59:34.781Z,101654.34
2023-05-22T12:02:01.464Z,101655.94
2023-05-22T12:04:28.135Z,101652.09
2023-05-22T12:06:55.360Z,101658.00
2023-05-22T12:09:22.221Z,101650.63
2023-05-22T12:11:49.668Z,101658.81
2023-05-22T12:14:16.461Z,101654.22
2023-05-22T12:16:44.773Z,101659.03
2023-05-22T12:19:13.432Z,101650.59
2023-05-22T12:21:42.038Z,101657.91
2023-05-22T12:24:08.706Z,101655.81
2023-05-22T12:26:36.562Z,101662.81
2023-05-22T12:29:06.153Z,101660.06
2023-05-22T12:31:37.564Z,101657.13
2023-05-22T12:34:06.583Z,101656.72
2023-05-22T12:36:41.039Z,101659.47
2023-05-22T12:39:14.319Z,101653.00
2023-05-22T12:41:41.122Z,101650.94
2023-05-22T12:44:08.143Z,101651.88
2023-05-22T12:46:35.158Z,101649.41
2023-05-22T12:49:01.961Z,101645.97
2023-05-22T12:51:31.281Z,101647.91
2023-05-22T12:54:00.439Z,101649.31
2023-05-22T12:56:27.966Z,101663.44
2023-05-22T12:58:54.675Z,101656.72
2023-05-22T13:01:21.932Z,101651.63
2023-05-22T13:03:48.769Z,101653.53
2023-05-22T13:06:15.632Z,101659.81
2023-05-22T13:08:42.453Z,101662.72
2023-05-22T13:11:12.370Z,101667.94
2023-05-22T13:13:40.350Z,101671.19
2023-05-22T13:16:21.516Z,101663.03
2023-05-22T13:18:48.588Z,101677.47
2023-05-22T13:29:59.313Z,101670.53
2023-05-22T13:32:26.355Z,101677.97
2023-05-22T13:34:53.389Z,101682.22
2023-05-22T13:37:20.357Z,101675.50
2023-05-22T13:39:47.337Z,101668.72
2023-05-22T13:42:13.996Z,101678.41
2023-05-22T13:44:40.719Z,101677.13
2023-05-22T13:47:07.737Z,101675.38
2023-05-22T13:49:34.451Z,101685.53
2023-05-22T13:54:56.152Z,101696.41
2023-05-22T13:57:22.807Z,101700.22
2023-05-22T13:59:50.860Z,101710.31
2023-05-22T14:02:28.067Z,101705.28
2023-05-22T14:04:54.859Z,101710.72
2023-05-22T14:07:21.813Z,101711.78
2023-05-22T14:09:48.415Z,101712.50
2023-05-22T14:12:15.287Z,101708.34
2023-05-22T14:14:42.052Z,101709.69
2023-05-22T14:17:09.334Z,101730.41
2023-05-22T14:19:36.142Z,101724.88
2023-05-22T14:22:03.197Z,101730.16
2023-05-22T14:24:29.984Z,101725.31
2023-05-22T14:26:58.366Z,101724.41
2023-05-22T14:29:25.985Z,101721.00
2023-05-22T14:32:01.483Z,101725.94
2023-05-22T14:34:28.206Z,101724.59
2023-05-22T14:36:56.722Z,101743.56
2023-05-22T14:39:24.979Z,101742.31
2023-05-22T14:41:55.013Z,101743.13
2023-05-22T14:44:22.901Z,101751.88
2023-05-22T14:46:51.311Z,101750.19
2023-05-22T14:49:21.320Z,101747.69
2023-05-22T14:51:48.447Z,101746.63
2023-05-22T14:54:19.187Z,101750.13
2023-05-22T14:56:46.563Z,101754.78
2023-05-22T14:59:14.288Z,101750.31
2023-05-22T15:01:41.246Z,101747.78
2023-05-22T15:04:09.063Z,101747.16
2023-05-22T15:06:36.370Z,101752.94
2023-05-22T15:09:03.504Z,101751.31
2023-05-22T15:11:30.115Z,101752.53
2023-05-22T15:13:56.937Z,101746.72
2023-05-22T15:16:25.804Z,101762.44
2023-05-22T15:18:52.832Z,101750.88
2023-05-22T15:21:19.583Z,101750.53
2023-05-22T15:23:46.399Z,101758.84
2023-05-22T15:26:13.074Z,101765.69
2023-05-22T15:28:39.816Z,101754.97
2023-05-22T15:31:06.590Z,101761.19
2023-05-22T15:33:34.451Z,101764.44
2023-05-22T15:36:01.050Z,101780.03
2023-05-22T15:38:28.386Z,101773.81
2023-05-22T15:43:53.248Z,101788.16
2023-05-22T15:46:20.046Z,101777.31
2023-05-22T15:48:46.811Z,101800.84
2023-05-22T15:51:13.504Z,101793.19
2023-05-22T15:53:40.523Z,101794.56
2023-05-22T15:56:07.544Z,101794.81
2023-05-22T15:58:34.275Z,101797.47
2023-05-22T16:01:02.011Z,101792.03
2023-05-22T16:03:28.751Z,101797.38
2023-05-22T16:05:55.554Z,101788.66
2023-05-22T16:08:22.200Z,101782.19
2023-05-22T16:10:49.184Z,101783.25
2023-05-22T16:13:17.158Z,101783.75
2023-05-22T16:15:44.357Z,101784.56
2023-05-22T16:18:12.385Z,101784.13
2023-05-22T16:20:39.382Z,101788.44
2023-05-22T16:23:06.136Z,101790.38
2023-05-22T16:25:32.895Z,101791.56
2023-05-22T16:27:59.717Z,101792.28
2023-05-22T16:30:27.827Z,101791.31
2023-05-22T16:32:54.470Z,101790.88
2023-05-22T16:35:22.296Z,101799.94
2023-05-22T16:37:51.126Z,101797.41
2023-05-22T16:40:18.678Z,101796.06
2023-05-22T16:42:45.438Z,101801.66
2023-05-22T16:45:12.238Z,101800.09
2023-05-22T16:47:38.871Z,101808.69
2023-05-22T16:50:06.310Z,101808.88
2023-05-22T16:52:32.982Z,101802.34
2023-05-22T16:54:59.490Z,101816.84
2023-05-22T16:57:28.184Z,101808.75
2023-05-22T16:59:57.237Z,101803.56
2023-05-22T17:02:24.477Z,101809.94
2023-05-22T17:04:51.144Z,101809.75
2023-05-22T17:07:17.774Z,101813.19
2023-05-22T17:09:44.411Z,101821.81
2023-05-22T17:12:11.105Z,101813.31
2023-05-22T17:14:37.831Z,101826.88
2023-05-22T17:17:04.636Z,101826.31
2023-05-22T17:19:32.337Z,101824.72
2023-05-22T17:21:59.234Z,101824.53
2023-05-22T17:24:27.863Z,101825.44
2023-05-22T17:26:54.531Z,101837.59
2023-05-22T17:29:21.237Z,101837.72
2023-05-22T17:31:48.199Z,101838.97
2023-05-22T17:34:14.911Z,101849.91
2023-05-22T17:36:43.270Z,101838.81
2023-05-22T17:39:11.555Z,101836.19
2023-05-22T17:41:38.433Z,101843.06
2023-05-22T17:44:05.076Z,101837.63
2023-05-22T17:46:31.922Z,101835.72
2023-05-22T17:48:58.762Z,101844.72
2023-05-22T17:51:25.529Z,101849.25
2023-05-22T17:53:56.354Z,101844.50
2023-05-22T17:56:23.596Z,101845.56
2023-05-22T17:58:50.929Z,101848.72
2023-05-22T18:01:18.244Z,101853.16
2023-05-22T18:03:46.089Z,101846.94
2023-05-22T18:09:08.437Z,101852.03
2023-05-22T18:11:35.117Z,101855.31
2023-05-22T18:14:01.718Z,101853.84
2023-05-22T18:16:28.903Z,101845.50
2023-05-22T18:18:55.802Z,101857.84
2023-05-22T18:21:22.610Z,101862.81
2023-05-22T18:23:49.418Z,101864.34
2023-05-22T18:26:15.993Z,101869.44
2023-05-22T18:28:42.769Z,101865.81
2023-05-22T18:31:14.405Z,101866.97
2023-05-22T18:33:44.712Z,101867.25
2023-05-22T18:36:12.226Z,101879.34
2023-05-22T18:38:41.008Z,101871.53
2023-05-22T18:41:07.666Z,101873.47
2023-05-22T18:43:34.380Z,101876.50
2023-05-22T18:46:01.083Z,101875.34
2023-05-22T18:48:28.474Z,101870.94
2023-05-22T18:50:57.529Z,101877.53
2023-05-22T18:53:26.992Z,101878.91
2023-05-22T18:55:54.094Z,101885.41
2023-05-22T18:58:21.088Z,101881.13
2023-05-22T19:03:42.380Z,101892.94
2023-05-22T19:06:08.971Z,101884.03
2023-05-22T19:08:35.660Z,101884.31
2023-05-22T19:11:02.172Z,101891.97
2023-05-22T19:13:29.456Z,101885.13
2023-05-22T19:16:03.693Z,101898.75
2023-05-22T19:18:30.325Z,101896.94
2023-05-22T19:20:57.009Z,101890.16
2023-05-22T19:23:23.911Z,101896.06
2023-05-22T19:25:50.879Z,101897.84
2023-05-22T19:28:17.645Z,101905.78
2023-05-22T19:33:38.971Z,101917.94
2023-05-22T19:36:06.914Z,101930.50
2023-05-22T19:38:33.711Z,101938.09
2023-05-22T19:41:00.505Z,101926.63
2023-05-22T19:43:27.409Z,101937.25
2023-05-22T19:45:54.219Z,101942.66
2023-05-22T19:48:21.717Z,101946.00
2023-05-22T19:50:48.369Z,101945.38
2023-05-22T19:53:14.940Z,101952.03
2023-05-22T19:58:35.872Z,101959.34
2023-05-22T20:01:02.644Z,101956.34
2023-05-22T20:03:29.207Z,101965.56
2023-05-22T20:05:56.273Z,101968.91
2023-05-22T20:08:23.491Z,101972.69
2023-05-22T20:13:44.367Z,101974.94
2023-05-22T20:16:12.808Z,101974.94
2023-05-22T20:18:41.204Z,101982.69
2023-05-22T20:21:08.326Z,101993.78
2023-05-22T20:23:34.963Z,101987.06
2023-05-22T20:26:01.607Z,101987.19
2023-05-22T20:28:28.794Z,101994.75
2023-05-22T20:30:55.406Z,102007.09
2023-05-22T20:33:22.631Z,102003.75
2023-05-22T20:35:52.827Z,102005.81
2023-05-22T20:38:20.213Z,102019.09
2023-05-22T20:40:47.724Z,102004.38
2023-05-22T20:43:14.760Z,102014.16
2023-05-22T20:45:45.752Z,102027.59
2023-05-22T20:48:13.487Z,102034.09
2023-05-22T20:50:42.449Z,102032.75
2023-05-22T20:53:09.318Z,102040.44
2023-05-22T20:55:39.058Z,102043.06
2023-05-22T20:58:05.874Z,102051.53
2023-05-22T21:00:35.165Z,102051.47
2023-05-22T21:03:01.851Z,102063.94
2023-05-22T21:05:28.613Z,102068.53
2023-05-22T21:07:55.483Z,102069.97
2023-05-22T21:10:22.122Z,102066.28
2023-05-22T21:12:48.793Z,102069.47
2023-05-22T21:15:15.744Z,102069.09
2023-05-22T21:17:43.078Z,102069.72
2023-05-22T21:20:10.391Z,102059.16
2023-05-22T21:22:37.035Z,102055.06
2023-05-22T21:25:04.149Z,102073.09
2023-05-22T21:27:30.719Z,102071.56
2023-05-22T21:29:57.431Z,102073.38
2023-05-22T21:32:24.235Z,102077.72
2023-05-22T21:34:50.912Z,102078.09
2023-05-22T21:37:17.493Z,102076.31
2023-05-22T21:39:44.329Z,102073.31
2023-05-22T21:42:11.111Z,102066.53
2023-05-22T21:44:37.934Z,102064.75
2023-05-22T21:47:04.926Z,102071.63
2023-05-22T21:49:31.627Z,102076.25
2023-05-22T21:51:58.285Z,102078.16
2023-05-22T21:54:24.972Z,102075.97
2023-05-22T21:56:51.630Z,102083.44
2023-05-22T21:59:18.443Z,102074.38
2023-05-22T22:01:45.346Z,102076.94
2023-05-22T22:04:12.240Z,102085.38
2023-05-22T22:06:39.127Z,102084.34
2023-05-22T22:09:05.791Z,102072.53
2023-05-22T22:11:32.524Z,102070.44
2023-05-22T22:13:59.029Z,102067.94
2023-05-22T22:16:26.129Z,102069.66
2023-05-22T22:18:52.886Z,102081.34
2023-05-22T22:21:19.937Z,102080.03
2023-05-22T22:23:46.778Z,102078.94
2023-05-22T22:26:13.841Z,102073.34
2023-05-22T22:28:40.667Z,102075.47
2023-05-22T22:31:50.497Z,102074.66
2023-05-22T22:34:17.192Z,102070.59
2023-05-22T22:36:44.156Z,102067.31
2023-05-22T22:39:11.407Z,102067.81
2023-05-22T22:44:32.449Z,102069.31
2023-05-22T22:46:59.292Z,102071.47
2023-05-22T22:49:25.867Z,102070.66
2023-05-22T22:54:46.591Z,102078.56
2023-05-22T22:57:13.354Z,102077.88
2023-05-22T22:59:40.175Z,102078.34
2023-05-22T23:02:07.031Z,102082.41
2023-05-22T23:04:34.111Z,102087.63
2023-05-22T23:07:00.861Z,102084.44
2023-05-22T23:09:27.521Z,102090.59
2023-05-22T23:14:50.586Z,102101.44
2023-05-22T23:17:17.379Z,102099.59
2023-05-22T23:19:44.469Z,102094.41
2023-05-22T23:25:06.193Z,102099.78
2023-05-22T23:27:32.768Z,102096.94
2023-05-22T23:29:59.865Z,102102.91
2023-05-22T23:32:26.750Z,102109.84
2023-05-22T23:34:53.758Z,102116.22
2023-05-22T23:37:20.534Z,102109.63
2023-05-22T23:39:47.049Z,102102.69
2023-05-22T23:45:08.220Z,102116.88
2023-05-22T23:47:35.032Z,102115.28
2023-05-22T23:50:02.090Z,102117.31
2023-05-22T23:52:28.783Z,102121.69
2023-05-22T23:54:55.580Z,102128.19
2023-05-22T23:57:22.273Z,102110.88
2023-05-22T23:59:49.191Z,102114.34
